createdAt,value
2023-04-25T00:00:56.843Z,101050.86
2023-04-25T00:03:26.493Z,101046.81
2023-04-25T00:05:53.944Z,101045.39
2023-04-25T00:08:21.506Z,101048.55
2023-04-25T00:10:50.024Z,101052.06
2023-04-25T00:13:18.630Z,101050.31
2023-04-25T00:15:47.507Z,101049.91
2023-04-25T00:18:14.639Z,101048.77
2023-04-25T00:20:41.664Z,101049.22
2023-04-25T00:23:09.038Z,101046.43
2023-04-25T00:25:36.091Z,101048.38
2023-04-25T00:28:03.189Z,101051.92
2023-04-25T00:30:30.181Z,101054.23
2023-04-25T00:32:57.262Z,101053.09
2023-04-25T00:35:24.354Z,101060.20
2023-04-25T00:37:51.653Z,101055.54
2023-04-25T00:40:18.695Z,101052.39
2023-04-25T00:42:45.882Z,101056.13
2023-04-25T00:45:15.019Z,101054.65
2023-04-25T00:47:42.869Z,101052.48
2023-04-25T00:50:10.156Z,101046.97
2023-04-25T00:52:39.247Z,101047.95
2023-04-25T00:55:06.578Z,101043.67
2023-04-25T00:57:33.639Z,101044.80
2023-04-25T01:00:00.719Z,101042.58
2023-04-25T01:02:28.931Z,101048.00
2023-04-25T01:04:57.270Z,101049.44
2023-04-25T01:07:24.408Z,101054.56
2023-04-25T01:09:52.703Z,101048.87
2023-04-25T01:12:19.760Z,101045.45
2023-04-25T01:14:47.101Z,101047.10
2023-04-25T01:17:14.284Z,101045.23
2023-04-25T01:19:41.366Z,101046.73
2023-04-25T01:22:08.444Z,101044.03
2023-04-25T01:24:36.628Z,101041.48
2023-04-25T01:27:03.865Z,101044.48
2023-04-25T01:29:31.415Z,101045.00
2023-04-25T01:31:59.818Z,101045.91
2023-04-25T01:34:26.920Z,101049.20
2023-04-25T01:36:54.313Z,101051.80
2023-04-25T01:39:21.666Z,101053.24
2023-04-25T01:41:48.868Z,101056.46
2023-04-25T01:44:16.581Z,101051.48
2023-04-25T01:46:43.667Z,101049.48
2023-04-25T01:49:11.899Z,101049.65
2023-04-25T01:51:39.524Z,101048.23
2023-04-25T01:54:06.695Z,101053.33
2023-04-25T01:56:34.482Z,101052.63
2023-04-25T01:59:01.855Z,101050.37
2023-04-25T02:01:46.170Z,101052.83
2023-04-25T02:04:20.960Z,101052.45
2023-04-25T02:06:48.439Z,101054.59
2023-04-25T02:09:16.608Z,101061.47
2023-04-25T02:11:48.335Z,101057.44
2023-04-25T02:14:27.489Z,101059.25
2023-04-25T02:17:08.376Z,101064.70
2023-04-25T02:19:35.627Z,101063.98
2023-04-25T02:22:02.659Z,101069.40
2023-04-25T02:24:29.690Z,101070.08
2023-04-25T02:26:57.424Z,101073.98
2023-04-25T02:29:24.543Z,101069.50
2023-04-25T02:31:51.672Z,101066.95
2023-04-25T02:34:18.734Z,101066.09
2023-04-25T02:36:46.120Z,101069.09
2023-04-25T02:39:13.215Z,101067.02
2023-04-25T02:41:40.300Z,101073.99
2023-04-25T02:44:07.392Z,101076.93
2023-04-25T02:46:39.473Z,101087.56
2023-04-25T02:49:07.860Z,101093.69
2023-04-25T02:51:35.412Z,101096.96
2023-04-25T02:54:02.473Z,101099.91
2023-04-25T02:56:29.879Z,101101.70
2023-04-25T02:58:57.641Z,101103.13
2023-04-25T03:01:24.854Z,101103.68
2023-04-25T03:03:52.268Z,101110.74
2023-04-25T03:06:19.800Z,101106.08
2023-04-25T03:08:46.771Z,101113.92
2023-04-25T03:11:13.768Z,101117.89
2023-04-25T03:13:42.458Z,101126.58
2023-04-25T03:16:09.847Z,101132.14
2023-04-25T03:18:36.866Z,101140.66
2023-04-25T03:21:03.961Z,101143.35
2023-04-25T03:23:31.701Z,101153.88
2023-04-25T03:25:58.838Z,101165.11
2023-04-25T03:28:26.613Z,101177.20
2023-04-25T03:30:55.398Z,101184.81
2023-04-25T03:33:23.005Z,101194.48
2023-04-25T03:35:51.283Z,101201.73
2023-04-25T03:38:18.748Z,101211.56
2023-04-25T03:40:45.995Z,101221.56
2023-04-25T03:43:34.866Z,101237.84
2023-04-25T03:46:05.290Z,101249.95
2023-04-25T03:48:32.372Z,101263.81
2023-04-25T03:50:59.427Z,101276.79
2023-04-25T03:53:26.638Z,101291.89
2023-04-25T03:56:13.882Z,101309.45
2023-04-25T03:58:41.413Z,101320.22
2023-04-25T04:01:08.991Z,101338.91
2023-04-25T04:03:37.661Z,101350.72
2023-04-25T04:06:06.796Z,101358.16
2023-04-25T04:08:37.278Z,101393.52
2023-04-25T04:11:04.520Z,101417.77
2023-04-25T04:13:32.608Z,101429.34
2023-04-25T04:16:00.339Z,101433.58
2023-04-25T04:18:27.501Z,101442.25
2023-04-25T04:20:57.022Z,101447.73
2023-04-25T04:23:24.436Z,101451.92
2023-04-25T04:25:51.983Z,101455.45
2023-04-25T04:28:19.042Z,101461.40
2023-04-25T04:30:58.955Z,101464.65
2023-04-25T04:33:26.883Z,101464.30
2023-04-25T04:36:00.288Z,101461.73
2023-04-25T04:38:28.383Z,101460.67
2023-04-25T04:40:58.322Z,101467.52
2023-04-25T04:43:34.629Z,101461.14
2023-04-25T04:46:29.328Z,101456.29
2023-04-25T04:49:15.095Z,101454.42
2023-04-25T04:51:48.353Z,101445.87
2023-04-25T04:54:36.851Z,101444.86
2023-04-25T04:57:34.288Z,101440.84
2023-04-25T05:00:37.066Z,101436.48
2023-04-25T05:03:33.354Z,101440.13
2023-04-25T05:06:03.581Z,101436.99
2023-04-25T05:08:45.244Z,101436.03
2023-04-25T05:11:35.369Z,101376.02
2023-04-25T05:14:21.305Z,101369.73
2023-04-25T05:17:09.678Z,101365.94
2023-04-25T05:19:58.788Z,101362.20
2023-04-25T05:22:35.824Z,101352.39
2023-04-25T05:25:35.560Z,101348.17
2023-04-25T05:28:14.385Z,101346.04
2023-04-25T05:31:01.309Z,101351.55
2023-04-25T05:33:39.793Z,101355.70
2023-04-25T05:36:07.817Z,101352.73
2023-04-25T05:38:35.095Z,101354.54
2023-04-25T05:41:22.600Z,101358.54
2023-04-25T05:43:57.965Z,101365.52
2023-04-25T05:46:30.373Z,101374.56
2023-04-25T05:49:12.013Z,101383.90
2023-04-25T05:52:08.305Z,101390.96
2023-04-25T05:54:44.542Z,101400.30
2023-04-25T05:57:28.619Z,101401.38
2023-04-25T05:59:57.134Z,101411.57
2023-04-25T06:02:40.490Z,101421.77
2023-04-25T06:05:09.741Z,101429.41
2023-04-25T06:07:37.132Z,101433.88
2023-04-25T06:10:07.547Z,101440.10
2023-04-25T06:12:34.715Z,101442.57
2023-04-25T06:15:02.253Z,101447.36
2023-04-25T06:17:31.809Z,101453.52
2023-04-25T06:19:59.349Z,101453.01
2023-04-25T06:22:26.378Z,101457.20
2023-04-25T06:24:53.629Z,101462.20
2023-04-25T06:27:20.786Z,101469.86
2023-04-25T06:29:47.890Z,101476.59
2023-04-25T06:32:15.406Z,101480.30
2023-04-25T06:34:42.398Z,101488.95
2023-04-25T06:37:09.581Z,101493.38
2023-04-25T06:39:37.647Z,101495.83
2023-04-25T06:42:06.424Z,101502.02
2023-04-25T06:44:48.670Z,101502.78
2023-04-25T06:47:16.108Z,101504.88
2023-04-25T06:49:43.236Z,101507.42
2023-04-25T06:52:11.933Z,101513.79
2023-04-25T06:54:39.368Z,101515.70
2023-04-25T06:57:25.460Z,101523.70
2023-04-25T06:59:52.723Z,101529.05
2023-04-25T07:02:19.994Z,101526.90
2023-04-25T07:04:47.528Z,101525.91
2023-04-25T07:07:15.265Z,101518.40
2023-04-25T07:09:46.927Z,101510.56
2023-04-25T07:12:13.916Z,101497.71
2023-04-25T07:14:40.990Z,101485.98
2023-04-25T07:17:08.531Z,101482.38
2023-04-25T07:19:35.980Z,101480.98
2023-04-25T07:22:03.423Z,101470.10
2023-04-25T07:24:30.572Z,101468.46
2023-04-25T07:26:57.760Z,101470.09
2023-04-25T07:29:32.235Z,101471.09
2023-04-25T07:32:00.276Z,101474.11
2023-04-25T07:34:27.410Z,101471.43
2023-04-25T07:36:55.071Z,101464.27
2023-04-25T07:39:24.430Z,101461.95
2023-04-25T07:41:54.501Z,101452.88
2023-04-25T07:44:24.728Z,101439.55
2023-04-25T07:46:51.719Z,101427.40
2023-04-25T07:49:18.831Z,101405.08
2023-04-25T07:51:46.018Z,101393.59
2023-04-25T07:54:15.819Z,101379.58
2023-04-25T07:56:52.509Z,101370.08
2023-04-25T07:59:21.459Z,101355.11
2023-04-25T08:01:48.740Z,101337.11
2023-04-25T08:04:16.540Z,101330.88
2023-04-25T08:06:55.039Z,101318.78
2023-04-25T08:09:26.245Z,101299.63
2023-04-25T08:11:53.609Z,101286.20
2023-04-25T08:14:24.611Z,101272.17
2023-04-25T08:16:52.201Z,101261.61
2023-04-25T08:19:20.395Z,101234.59
2023-04-25T08:21:47.588Z,101217.82
2023-04-25T08:24:17.692Z,101208.54
2023-04-25T08:26:45.512Z,101194.64
2023-04-25T08:29:16.075Z,101185.77
2023-04-25T08:31:43.701Z,101170.39
2023-04-25T08:37:12.143Z,101150.41
2023-04-25T08:39:54.896Z,101127.36
2023-04-25T08:42:43.959Z,101104.70
2023-04-25T08:45:11.656Z,101086.98
2023-04-25T08:47:40.925Z,101075.64
2023-04-25T08:50:08.626Z,101062.73
2023-04-25T08:52:44.656Z,101044.25
2023-04-25T08:55:13.204Z,101031.33
2023-04-25T08:57:44.016Z,101020.55
2023-04-25T09:00:13.600Z,101012.71
2023-04-25T09:02:42.603Z,100999.02
2023-04-25T09:05:11.172Z,100990.86
2023-04-25T09:07:38.303Z,100982.27
2023-04-25T09:10:06.181Z,100977.42
2023-04-25T09:12:36.496Z,100967.89
2023-04-25T09:15:08.389Z,100951.07
2023-04-25T09:17:59.247Z,100933.70
2023-04-25T09:20:31.822Z,100913.85
2023-04-25T09:23:03.808Z,100902.23
2023-04-25T09:25:41.388Z,100880.62
2023-04-25T09:28:09.901Z,100870.23
2023-04-25T09:30:37.586Z,100857.77
2023-04-25T09:33:14.084Z,100841.92
2023-04-25T09:35:46.433Z,100835.27
2023-04-25T09:38:22.870Z,100818.96
2023-04-25T09:40:57.855Z,100801.33
2023-04-25T09:43:33.214Z,100778.27
2023-04-25T09:46:01.657Z,100769.94
2023-04-25T09:48:29.921Z,100755.30
2023-04-25T09:51:12.487Z,100744.76
2023-04-25T09:53:44.290Z,100728.02
2023-04-25T09:56:19.265Z,100709.80
2023-04-25T09:58:46.410Z,100702.27
2023-04-25T10:01:14.355Z,100697.84
2023-04-25T10:03:48.856Z,100697.20
2023-04-25T10:06:35.953Z,100690.28
2023-04-25T10:09:04.970Z,100697.73
2023-04-25T10:11:32.028Z,100702.52
2023-04-25T10:13:59.039Z,100712.69
2023-04-25T10:16:26.352Z,100705.30
2023-04-25T10:18:53.584Z,100692.17
2023-04-25T10:21:21.352Z,100681.80
2023-04-25T10:23:48.572Z,100673.84
2023-04-25T10:26:16.062Z,100666.55
2023-04-25T10:28:59.850Z,100656.59
2023-04-25T10:31:27.159Z,100649.54
2023-04-25T10:33:54.768Z,100647.06
2023-04-25T10:36:23.785Z,100642.48
2023-04-25T10:38:52.065Z,100635.79
2023-04-25T10:41:20.277Z,100622.40
2023-04-25T10:43:48.036Z,100625.46
2023-04-25T10:46:35.103Z,100631.47
2023-04-25T10:49:03.107Z,100622.81
2023-04-25T10:51:47.329Z,100616.27
2023-04-25T10:54:21.415Z,100627.06
2023-04-25T10:56:49.764Z,100632.77
2023-04-25T10:59:18.353Z,100633.67
2023-04-25T11:01:46.132Z,100633.20
2023-04-25T11:04:40.071Z,100630.90
2023-04-25T11:07:36.393Z,100609.95
2023-04-25T11:10:05.449Z,100585.06
2023-04-25T11:12:33.096Z,100567.96
2023-04-25T11:15:02.515Z,100558.44
2023-04-25T11:17:29.867Z,100547.54
2023-04-25T11:19:57.643Z,100527.86
2023-04-25T11:22:24.769Z,100501.39
2023-04-25T11:24:52.358Z,100481.05
2023-04-25T11:27:19.508Z,100454.92
2023-04-25T11:29:49.241Z,100435.51
2023-04-25T11:32:17.830Z,100427.15
2023-04-25T11:34:46.668Z,100423.85
2023-04-25T11:37:14.019Z,100427.70
2023-04-25T11:39:46.536Z,100414.57
2023-04-25T11:42:14.100Z,100396.57
2023-04-25T11:44:41.902Z,100392.52
2023-04-25T11:47:08.954Z,100388.09
2023-04-25T11:49:37.051Z,100387.85
2023-04-25T11:52:04.338Z,100386.02
2023-04-25T11:54:31.531Z,100388.80
2023-04-25T11:56:58.529Z,100381.59
2023-04-25T11:59:26.598Z,100374.73
2023-04-25T12:01:53.891Z,100386.27
2023-04-25T12:04:24.991Z,100394.63
2023-04-25T12:06:56.269Z,100394.17
2023-04-25T12:09:31.696Z,100387.60
2023-04-25T12:12:00.050Z,100370.45
2023-04-25T12:14:30.540Z,100346.64
2023-04-25T12:16:59.373Z,100334.22
2023-04-25T12:19:27.117Z,100329.52
2023-04-25T12:21:58.611Z,100322.55
2023-04-25T12:24:28.737Z,100328.73
2023-04-25T12:27:11.514Z,100333.39
2023-04-25T12:29:49.307Z,100327.38
2023-04-25T12:32:18.247Z,100311.69
2023-04-25T12:34:46.187Z,100295.81
2023-04-25T12:37:13.404Z,100273.22
2023-04-25T12:39:40.878Z,100252.29
2023-04-25T12:42:10.009Z,100236.33
2023-04-25T12:44:37.587Z,100223.43
2023-04-25T12:47:04.845Z,100207.11
2023-04-25T12:49:32.098Z,100201.42
2023-04-25T12:51:59.335Z,100206.89
2023-04-25T12:54:27.068Z,100202.48
2023-04-25T12:56:54.190Z,100205.24
2023-04-25T12:59:22.484Z,100209.15
2023-04-25T13:01:49.593Z,100209.05
2023-04-25T13:04:17.402Z,100213.64
2023-04-25T13:06:44.807Z,100206.79
2023-04-25T13:09:13.847Z,100201.21
2023-04-25T13:11:42.559Z,100183.19
2023-04-25T13:14:09.652Z,100181.91
2023-04-25T13:16:36.864Z,100190.31
2023-04-25T13:19:03.885Z,100241.03
2023-04-25T13:21:34.031Z,100263.14
2023-04-25T13:24:01.206Z,100273.27
2023-04-25T13:26:28.276Z,100271.36
2023-04-25T13:28:55.382Z,100267.90
2023-04-25T13:31:22.474Z,100270.70
2023-04-25T13:33:50.134Z,100273.85
2023-04-25T13:36:17.486Z,100270.10
2023-04-25T13:38:46.176Z,100260.14
2023-04-25T13:41:18.991Z,100229.11
2023-04-25T13:43:49.151Z,100198.73
2023-04-25T13:46:35.437Z,100138.88
2023-04-25T13:49:12.924Z,100083.77
2023-04-25T13:51:41.712Z,100052.67
2023-04-25T13:54:08.918Z,100027.40
2023-04-25T13:56:36.260Z,100003.27
2023-04-25T13:59:03.248Z,99994.96
2023-04-25T14:01:32.290Z,99995.09
2023-04-25T14:03:59.630Z,99989.99
2023-04-25T14:06:27.102Z,99985.57
2023-04-25T14:08:55.045Z,99976.58
2023-04-25T14:11:22.254Z,99973.14
2023-04-25T14:13:50.617Z,99967.29
2023-04-25T14:16:18.232Z,99965.30
2023-04-25T14:18:45.451Z,99963.80
2023-04-25T14:21:12.542Z,99971.67
2023-04-25T14:23:39.623Z,99976.64
2023-04-25T14:26:06.845Z,99976.86
2023-04-25T14:28:33.920Z,99981.58
2023-04-25T14:31:02.019Z,99974.04
2023-04-25T14:33:29.034Z,99962.91
2023-04-25T14:35:56.265Z,99954.55
2023-04-25T14:38:24.624Z,99944.36
2023-04-25T14:40:52.128Z,99939.04
2023-04-25T14:43:19.092Z,99935.02
2023-04-25T14:45:46.285Z,99931.30
2023-04-25T14:48:13.525Z,99953.69
2023-04-25T14:50:40.736Z,99959.99
2023-04-25T14:53:08.046Z,99941.50
2023-04-25T14:55:35.032Z,99920.08
2023-04-25T14:58:02.281Z,99904.29
2023-04-25T15:00:29.457Z,99883.51
2023-04-25T15:02:57.227Z,99872.60
2023-04-25T15:05:24.566Z,99856.81
2023-04-25T15:07:51.970Z,99845.97
2023-04-25T15:10:19.542Z,99836.56
2023-04-25T15:12:47.887Z,99829.34
2023-04-25T15:15:22.759Z,99819.65
2023-04-25T15:17:56.486Z,99813.09
2023-04-25T15:20:25.735Z,99812.41
2023-04-25T15:22:52.728Z,99806.11
2023-04-25T15:25:19.755Z,99804.77
2023-04-25T15:27:49.594Z,99802.41
2023-04-25T15:30:17.810Z,99793.86
2023-04-25T15:32:48.651Z,99789.44
2023-04-25T15:35:16.487Z,99785.77
2023-04-25T15:37:43.636Z,99779.11
2023-04-25T15:40:16.839Z,99769.98
2023-04-25T15:42:48.114Z,99764.73
2023-04-25T15:45:15.801Z,99769.80
2023-04-25T15:47:43.240Z,99766.52
2023-04-25T15:50:11.697Z,99759.70
2023-04-25T15:52:39.027Z,99762.20
2023-04-25T15:55:06.608Z,99764.65
2023-04-25T15:57:34.333Z,99765.03
2023-04-25T16:00:02.387Z,99767.45
2023-04-25T16:02:39.738Z,99763.90
2023-04-25T16:05:07.464Z,99758.67
2023-04-25T16:07:35.166Z,99758.33
2023-04-25T16:10:02.213Z,99758.19
2023-04-25T16:12:31.240Z,99756.45
2023-04-25T16:14:58.434Z,99758.86
2023-04-25T16:17:26.007Z,99758.83
2023-04-25T16:19:53.527Z,99758.14
2023-04-25T16:22:21.062Z,99758.16
2023-04-25T16:24:48.103Z,99761.53
2023-04-25T16:27:15.255Z,99767.52
2023-04-25T16:29:42.671Z,99773.87
2023-04-25T16:32:09.655Z,99780.39
2023-04-25T16:34:36.677Z,99791.77
2023-04-25T16:37:03.712Z,99793.20
2023-04-25T16:39:30.837Z,99801.33
2023-04-25T16:41:57.881Z,99805.10
2023-04-25T16:44:24.934Z,99811.52
2023-04-25T16:46:52.661Z,99817.01
2023-04-25T16:49:19.772Z,99817.77
2023-04-25T16:51:47.377Z,99828.00
2023-04-25T16:54:14.366Z,99837.83
2023-04-25T16:56:42.031Z,99849.64
2023-04-25T16:59:09.096Z,99857.43
2023-04-25T17:01:36.947Z,99867.86
2023-04-25T17:04:04.074Z,99878.19
2023-04-25T17:06:31.343Z,99893.98
2023-04-25T17:08:58.407Z,99913.30
2023-04-25T17:11:25.668Z,99932.17
2023-04-25T17:13:52.717Z,99951.64
2023-04-25T17:16:23.283Z,99977.39
2023-04-25T17:18:53.631Z,100008.90
2023-04-25T17:21:20.973Z,100039.64
2023-04-25T17:23:48.042Z,100080.02
2023-04-25T17:26:15.227Z,100139.14
2023-04-25T17:28:45.359Z,100209.50
2023-04-25T17:31:12.801Z,100275.35
2023-04-25T17:33:39.908Z,100342.45
2023-04-25T17:36:07.407Z,100400.40
2023-04-25T17:38:35.903Z,100485.83
2023-04-25T17:41:02.891Z,100582.29
2023-04-25T17:43:30.068Z,100644.91
2023-04-25T17:45:57.163Z,100693.62
2023-04-25T17:48:25.174Z,100756.32
2023-04-25T17:50:52.283Z,100809.99
2023-04-25T17:53:19.355Z,100857.11
2023-04-25T17:55:46.380Z,100886.48
2023-04-25T17:58:13.360Z,100906.11
2023-04-25T18:00:40.612Z,100921.15
2023-04-25T18:03:07.849Z,100933.99
2023-04-25T18:05:35.099Z,100936.39
2023-04-25T18:08:02.187Z,100937.78
2023-04-25T18:10:29.197Z,100943.96
2023-04-25T18:12:56.215Z,100950.55
2023-04-25T18:15:23.336Z,100950.15
2023-04-25T18:17:50.495Z,100956.20
2023-04-25T18:20:17.588Z,100958.80
2023-04-25T18:22:45.707Z,100957.30
2023-04-25T18:25:14.568Z,100948.61
2023-04-25T18:27:41.818Z,100932.66
2023-04-25T18:30:11.092Z,100918.98
2023-04-25T18:32:38.516Z,100907.05
2023-04-25T18:35:06.218Z,100817.88
2023-04-25T18:37:33.615Z,100573.42
2023-04-25T18:40:06.350Z,100508.95
2023-04-25T18:42:35.096Z,100486.05
2023-04-25T18:45:02.047Z,100471.70
2023-04-25T18:47:29.280Z,100448.25
2023-04-25T18:49:56.345Z,100425.98
2023-04-25T18:52:23.400Z,100426.77
2023-04-25T18:54:50.698Z,100422.45
2023-04-25T18:57:18.197Z,100424.92
2023-04-25T18:59:46.412Z,100424.52
2023-04-25T19:02:16.261Z,100424.80
2023-04-25T19:04:44.001Z,100422.77
2023-04-25T19:07:11.531Z,100425.71
2023-04-25T19:09:38.562Z,100420.56
2023-04-25T19:12:05.819Z,100422.42
2023-04-25T19:14:33.670Z,100423.17
2023-04-25T19:17:01.092Z,100422.66
2023-04-25T19:19:28.322Z,100417.53
2023-04-25T19:21:55.421Z,100415.60
2023-04-25T19:24:22.888Z,100413.32
2023-04-25T19:26:49.924Z,100410.33
2023-04-25T19:29:17.371Z,100409.70
2023-04-25T19:31:44.886Z,100410.75
2023-04-25T19:34:13.180Z,100411.99
2023-04-25T19:36:41.638Z,100410.89
2023-04-25T19:39:08.814Z,100413.52
2023-04-25T19:41:37.279Z,100414.86
2023-04-25T19:44:06.332Z,100416.66
2023-04-25T19:46:33.796Z,100417.00
2023-04-25T19:49:01.655Z,100415.66
2023-04-25T19:51:28.858Z,100415.28
2023-04-25T19:53:56.020Z,100415.73
2023-04-25T19:56:23.743Z,100413.98
2023-04-25T19:58:51.651Z,100412.42
2023-04-25T20:01:22.368Z,100416.22
2023-04-25T20:03:52.221Z,100417.15
2023-04-25T20:06:19.731Z,100419.56
2023-04-25T20:08:47.548Z,100421.88
2023-04-25T20:11:15.211Z,100418.93
2023-04-25T20:13:42.237Z,100421.36
2023-04-25T20:16:09.317Z,100419.77
2023-04-25T20:18:36.371Z,100420.34
2023-04-25T20:21:03.445Z,100419.60
2023-04-25T20:23:30.518Z,100422.45
2023-04-25T20:25:57.626Z,100426.86
2023-04-25T20:28:24.753Z,100427.84
2023-04-25T20:30:51.810Z,100435.50
2023-04-25T20:33:18.912Z,100440.42
2023-04-25T20:35:46.790Z,100437.18
2023-04-25T20:38:14.190Z,100433.09
2023-04-25T20:40:41.471Z,100431.23
2023-04-25T20:43:11.317Z,100428.52
2023-04-25T20:45:39.874Z,100431.39
2023-04-25T20:48:07.066Z,100430.14
2023-04-25T20:50:34.290Z,100430.50
2023-04-25T20:54:52.320Z,100429.31
2023-04-25T20:57:19.422Z,100434.41
2023-04-25T20:59:48.273Z,100437.20
2023-04-25T21:02:16.099Z,100439.08
2023-04-25T21:04:46.689Z,100440.86
2023-04-25T21:07:13.919Z,100448.27
2023-04-25T21:09:42.764Z,100451.48
2023-04-25T21:12:09.822Z,100452.37
2023-04-25T21:14:36.799Z,100453.39
2023-04-25T21:17:04.548Z,100455.94
2023-04-25T21:19:31.880Z,100464.73
2023-04-25T21:21:58.957Z,100464.73
2023-04-25T21:24:27.496Z,100465.46
2023-04-25T21:26:54.645Z,100467.08
2023-04-25T21:29:21.640Z,100470.95
2023-04-25T21:31:49.117Z,100475.37
2023-04-25T21:34:16.153Z,100473.58
2023-04-25T21:36:44.473Z,100473.42
2023-04-25T21:39:11.657Z,100473.02
2023-04-25T21:41:38.730Z,100471.59
2023-04-25T21:44:06.724Z,100470.88
2023-04-25T21:46:34.235Z,100470.61
2023-04-25T21:49:01.284Z,100472.36
2023-04-25T21:51:29.281Z,100467.75
2023-04-25T21:53:56.542Z,100464.83
2023-04-25T21:56:23.587Z,100459.67
2023-04-25T21:58:50.958Z,100460.71
2023-04-25T22:01:18.387Z,100460.92
2023-04-25T22:03:45.637Z,100465.83
2023-04-25T22:06:12.926Z,100471.06
2023-04-25T22:08:39.984Z,100469.16
2023-04-25T22:11:08.422Z,100470.42
2023-04-25T22:13:36.157Z,100469.12
2023-04-25T22:16:03.374Z,100471.08
2023-04-25T22:18:30.670Z,100467.82
2023-04-25T22:20:57.663Z,100470.91
2023-04-25T22:23:25.732Z,100470.48
2023-04-25T22:25:52.937Z,100471.98
2023-04-25T22:28:20.692Z,100472.58
2023-04-25T22:30:47.747Z,100477.24
2023-04-25T22:33:14.930Z,100479.93
2023-04-25T22:35:42.453Z,100484.97
2023-04-25T22:38:09.817Z,100486.48
2023-04-25T22:40:37.025Z,100484.48
2023-04-25T22:43:04.084Z,100489.55
2023-04-25T22:45:31.580Z,100489.33
2023-04-25T22:47:58.856Z,100489.30
2023-04-25T22:50:27.297Z,100485.22
2023-04-25T22:52:55.362Z,100487.79
2023-04-25T22:55:22.877Z,100481.54
2023-04-25T22:57:49.942Z,100481.27
2023-04-25T23:00:20.151Z,100483.54
2023-04-25T23:02:48.203Z,100482.46
2023-04-25T23:05:15.730Z,100484.76
2023-04-25T23:07:43.915Z,100479.74
2023-04-25T23:10:11.251Z,100482.73
2023-04-25T23:12:39.000Z,100484.05
2023-04-25T23:15:07.453Z,100485.59
2023-04-25T23:17:34.509Z,100489.34
2023-04-25T23:20:01.680Z,100489.02
2023-04-25T23:22:28.679Z,100493.30
2023-04-25T23:24:56.109Z,100489.05
2023-04-25T23:27:23.098Z,100491.86
2023-04-25T23:29:57.571Z,100497.44
2023-04-25T23:32:26.421Z,100496.34
2023-04-25T23:34:53.691Z,100497.36
2023-04-25T23:37:20.742Z,100499.34
2023-04-25T23:39:50.253Z,100494.70
2023-04-25T23:42:18.341Z,100492.98
2023-04-25T23:44:45.475Z,100493.70
2023-04-25T23:47:14.341Z,100495.52
2023-04-25T23:49:41.727Z,100500.16
2023-04-25T23:52:08.717Z,100499.23
2023-04-25T23:54:35.909Z,100505.02
2023-04-25T23:57:04.693Z,100506.27
2023-04-25T23:59:32.162Z,100506.58
